Greenville, NC

7:17 AM EDT on May 03, 2015 (GMT -0400)
Tarboro-edgecombe | | Change Station
CLOSE
Current Station
Airport
Location: Tarboro,
Elevation: 52 ft
Nearby Weather Stations

Elev 52 ft 35.94 °N, 77.55 °W | Updated 22 minutes ago

Fog
Fog
45 °F
Feels Like 45 °F
N
0
Wind Variable Wind from North

Today
High -- | Low -- °F
--% Chance of Precip.
Yesterday
High -- | Low -- °F
Precip. -- in
6:15 AM 7:57 PM
Full, 100% visible
Pressure 30.15 in
Visibility 3.0 miles
Clouds Clear
Dew Point 44 °F
Humidity 97%
Rainfall 0.00 in
Snow Depth Not available.
UV 0 out of 12
Pollen 9.10 out of 12
Air Quality Not available.
Flu Activity No Activity
METAR KETC 031055Z AUTO 00000KT 3SM BR CLR 07/07 A3015 RMK AO2 T00720068

More Conditions Fewer Conditions

Pressure 30.15 in
Visibility 3.0 miles
Clouds Clear
Dew Point 44 °F
Humidity 97%
Rainfall 0.00 in
Snow Depth Not available.
UV 0 out of 12
Pollen 9.10 out of 12
Air Quality Not available.
Flu Activity No Activity
METAR KETC 031055Z AUTO 00000KT 3SM BR CLR 07/07 A3015 RMK AO2 T00720068

More Conditions Fewer Conditions

Nepal has a long way to go to dig out and rebuild from a devastating earthquake. We have teamed up with several charities and organizations to make contributing to the relief effort as easy as possible.
How you can help: Portlight Strategies | Red Cross

10-Day Weather Forecast

Almanac

Astronomy

May. 03, 2015 Rise Set
Actual Time
Civil Twilight
Nautical Twilight
Astronomical Twilight
Moon
Length of Visible Light
Length of Day
Tomorrow will be .
, % of the Moon is Illuminated

Today's Extremes

State Highs State Lows

Community

WunderPhotos

Upload Photos

1,818,187 photos uploaded!

WunderBlogs® & News

Nearby

Air Quality

  Air Quality AQ Index Pollutant
Not available.

Snow Depth

Station Depth Elevation

Earthquake Activity

City Distance Mag. Time & Date
Minimum magnitude displayed is 2.5.

Coastal Water Temperatures

Place Temperature

Stations

Nearby Weather Stations

Station Location Temp. Windchill Dew Point Humidity Wind Precip. Elev Updated Type